createdAt,value
2018-06-13T00:02:17.110Z,86.40
2018-06-13T00:07:19.241Z,86.00
2018-06-13T00:12:21.380Z,86.20
2018-06-13T00:17:23.537Z,86.00
2018-06-13T00:22:25.669Z,87.50
2018-06-13T00:27:27.799Z,87.00
2018-06-13T00:32:29.942Z,87.80
2018-06-13T00:37:32.110Z,88.50
2018-06-13T00:42:34.250Z,89.10
2018-06-13T00:47:36.397Z,88.70
2018-06-13T00:52:38.529Z,90.10
2018-06-13T00:57:40.670Z,90.40
2018-06-13T01:02:42.861Z,90.60
2018-06-13T01:07:45.019Z,89.50
2018-06-13T01:12:47.177Z,91.60
2018-06-13T01:17:49.337Z,91.60
2018-06-13T01:22:51.465Z,91.80
2018-06-13T01:27:53.614Z,90.90
2018-06-13T01:32:55.770Z,90.90
2018-06-13T01:37:57.980Z,92.30
2018-06-13T01:43:00.140Z,92.70
2018-06-13T01:48:02.287Z,92.70
2018-06-13T01:53:04.422Z,93.90
2018-06-13T01:58:06.697Z,93.40
2018-06-13T02:03:09.006Z,93.90
2018-06-13T02:08:11.157Z,94.40
2018-06-13T02:13:13.317Z,95.20
2018-06-13T02:18:15.482Z,95.50
2018-06-13T02:23:17.618Z,95.80
2018-06-13T02:28:19.766Z,96.00
2018-06-13T02:33:21.941Z,95.00
2018-06-13T02:38:24.115Z,94.80
2018-06-13T02:43:26.264Z,97.20
2018-06-13T02:48:28.405Z,94.80
2018-06-13T02:53:30.546Z,95.80
2018-06-13T02:58:32.677Z,95.40
2018-06-13T03:03:34.821Z,94.30
2018-06-13T03:08:36.985Z,93.80
2018-06-13T03:13:39.118Z,93.00
2018-06-13T03:18:41.277Z,92.00
2018-06-13T03:23:43.429Z,91.30
2018-06-13T03:28:45.562Z,89.20
2018-06-13T03:33:47.734Z,90.00
2018-06-13T03:38:49.902Z,89.60
2018-06-13T03:43:52.053Z,90.20
2018-06-13T03:48:54.209Z,89.80
2018-06-13T03:53:56.379Z,90.90
2018-06-13T03:58:58.509Z,89.50
2018-06-13T04:04:00.659Z,87.90
2018-06-13T04:09:03.606Z,87.70
2018-06-13T04:14:05.749Z,87.20
2018-06-13T04:19:07.893Z,88.10
2018-06-13T04:24:10.142Z,88.20
2018-06-13T04:29:12.302Z,87.80
2018-06-13T04:34:14.501Z,85.60
2018-06-13T04:39:16.674Z,86.60
2018-06-13T04:44:18.838Z,86.20
2018-06-13T04:49:20.993Z,86.60
2018-06-13T04:54:23.189Z,86.00
2018-06-13T04:59:26.230Z,85.40
2018-06-13T05:04:28.396Z,84.80
2018-06-13T05:09:30.541Z,82.20
2018-06-13T05:14:32.714Z,74.20
2018-06-13T05:19:34.902Z,69.40
2018-06-13T05:24:37.078Z,67.00
2018-06-13T05:29:39.238Z,65.40
2018-06-13T05:34:41.424Z,63.90
2018-06-13T05:39:43.634Z,67.80
2018-06-13T05:44:45.789Z,70.70
2018-06-13T05:49:47.957Z,74.80
2018-06-13T05:54:50.188Z,82.70
2018-06-13T05:59:52.322Z,83.90
2018-06-13T06:04:54.490Z,84.50
2018-06-13T06:09:56.658Z,80.40
2018-06-13T06:14:58.816Z,70.30
2018-06-13T06:20:00.982Z,72.50
2018-06-13T06:25:03.250Z,70.00
2018-06-13T06:30:05.447Z,67.30
2018-06-13T06:35:07.599Z,65.50
2018-06-13T06:40:09.733Z,69.50
2018-06-13T06:45:11.862Z,68.50
2018-06-13T06:50:14.001Z,62.90
2018-06-13T06:55:16.212Z,59.80
2018-06-13T07:00:18.331Z,58.00
2018-06-13T07:05:20.472Z,56.10
2018-06-13T07:10:22.656Z,59.30
2018-06-13T07:15:24.801Z,61.50
2018-06-13T07:20:27.030Z,60.80
2018-06-13T07:25:29.166Z,61.00
2018-06-13T07:30:31.310Z,63.20
2018-06-13T07:35:33.472Z,62.40
2018-06-13T07:40:35.602Z,61.70
2018-06-13T07:45:37.735Z,62.70
2018-06-13T07:50:39.886Z,61.20
2018-06-13T07:55:42.027Z,63.80
2018-06-13T08:00:44.181Z,59.20
2018-06-13T08:05:46.345Z,62.70
2018-06-13T08:10:48.502Z,64.90
2018-06-13T08:15:50.650Z,62.10
2018-06-13T08:20:52.785Z,62.90
2018-06-13T08:25:55.065Z,60.90
2018-06-13T08:30:57.206Z,58.30
2018-06-13T08:35:59.361Z,57.20
2018-06-13T08:41:01.515Z,55.90
2018-06-13T08:46:04.004Z,56.80
2018-06-13T08:51:06.141Z,56.70
2018-06-13T08:56:08.289Z,55.50
2018-06-13T09:01:10.421Z,56.00
2018-06-13T09:06:12.575Z,56.50
2018-06-13T09:11:14.735Z,57.40
2018-06-13T09:16:16.903Z,56.20
2018-06-13T09:21:19.094Z,59.20
2018-06-13T09:26:21.224Z,59.90
2018-06-13T09:36:25.628Z,59.00
2018-06-13T09:41:27.753Z,57.00
2018-06-13T09:46:29.894Z,55.80
2018-06-13T09:51:32.039Z,56.40
2018-06-13T09:56:34.190Z,59.90
2018-06-13T10:01:41.996Z,58.40
2018-06-13T10:06:44.159Z,58.20
2018-06-13T10:11:46.293Z,56.90
2018-06-13T10:16:48.435Z,56.90
2018-06-13T10:21:50.598Z,59.30
2018-06-13T10:26:52.753Z,58.00
2018-06-13T10:31:54.957Z,58.70
2018-06-13T10:36:57.126Z,58.30
2018-06-13T10:41:59.298Z,62.10
2018-06-13T10:47:01.474Z,61.80
2018-06-13T10:52:03.678Z,61.00
2018-06-13T10:57:05.862Z,59.60
2018-06-13T11:02:08.045Z,56.10
2018-06-13T11:07:10.202Z,54.60
2018-06-13T11:12:12.434Z,54.20
2018-06-13T11:17:14.626Z,52.70
2018-06-13T11:22:16.782Z,52.90
2018-06-13T11:27:18.946Z,56.00
2018-06-13T11:32:21.146Z,55.80
2018-06-13T11:37:23.345Z,55.00
2018-06-13T11:42:25.537Z,55.00
2018-06-13T11:47:27.732Z,53.70
2018-06-13T11:52:29.882Z,55.70
2018-06-13T11:57:32.062Z,55.20
2018-06-13T12:02:34.290Z,55.70
2018-06-13T12:07:36.446Z,54.50
2018-06-13T12:12:38.657Z,54.60
2018-06-13T12:17:40.822Z,54.00
2018-06-13T12:22:42.974Z,53.90
2018-06-13T12:27:45.142Z,54.60
2018-06-13T12:32:47.342Z,55.20
2018-06-13T12:37:49.531Z,55.20
2018-06-13T12:42:51.741Z,55.10
2018-06-13T12:47:54.026Z,56.10
2018-06-13T12:52:56.413Z,54.70
2018-06-13T12:57:58.606Z,54.30
2018-06-13T13:03:00.803Z,53.70
2018-06-13T13:08:03.009Z,54.70
2018-06-13T13:13:05.207Z,53.60
2018-06-13T13:18:07.393Z,53.70
2018-06-13T13:23:09.579Z,51.60
2018-06-13T13:28:11.758Z,54.40
2018-06-13T13:33:13.918Z,53.80
2018-06-13T13:38:16.089Z,53.40
2018-06-13T13:43:18.234Z,51.00
2018-06-13T13:48:20.394Z,52.60
2018-06-13T13:53:22.555Z,52.10
2018-06-13T13:58:24.715Z,51.70
2018-06-13T14:03:26.854Z,54.70
2018-06-13T14:08:28.982Z,53.50
2018-06-13T14:13:31.540Z,54.30
2018-06-13T14:18:33.689Z,54.80
2018-06-13T14:23:35.814Z,53.30
2018-06-13T14:28:37.954Z,54.30
2018-06-13T14:33:40.390Z,54.80
2018-06-13T14:38:42.514Z,54.00
2018-06-13T14:43:44.667Z,53.50
2018-06-13T14:48:46.822Z,54.10
2018-06-13T14:53:50.646Z,56.30
2018-06-13T14:58:52.792Z,55.80
2018-06-13T15:03:55.117Z,56.20
2018-06-13T15:08:57.270Z,56.20
2018-06-13T15:13:59.429Z,55.60
2018-06-13T15:19:01.650Z,54.90
2018-06-13T15:24:03.790Z,57.40
2018-06-13T15:29:06.025Z,56.70
2018-06-13T15:34:08.273Z,54.00
2018-06-13T15:39:12.222Z,54.70
2018-06-13T15:44:14.377Z,54.50
2018-06-13T15:49:16.537Z,55.20
2018-06-13T15:54:18.713Z,54.90
2018-06-13T15:59:20.850Z,55.70
2018-06-13T16:04:23.022Z,56.70
2018-06-13T16:09:25.185Z,56.80
2018-06-13T16:14:27.333Z,57.90
2018-06-13T16:19:29.522Z,57.20
2018-06-13T16:24:32.137Z,58.40
2018-06-13T16:29:34.342Z,56.60
2018-06-13T16:34:36.482Z,54.80
2018-06-13T16:39:39.065Z,55.40
2018-06-13T16:44:41.221Z,55.80
2018-06-13T16:49:43.410Z,56.00
2018-06-13T16:54:57.976Z,55.00
2018-06-13T17:00:00.167Z,56.60
2018-06-13T17:05:02.344Z,57.00
2018-06-13T17:10:04.551Z,59.60
2018-06-13T17:15:06.783Z,56.20
2018-06-13T17:20:08.937Z,55.60
2018-06-13T17:25:11.105Z,55.50
2018-06-13T17:30:13.294Z,56.20
2018-06-13T17:35:15.450Z,55.90
2018-06-13T17:40:17.602Z,59.00
2018-06-13T17:45:19.911Z,58.10
2018-06-13T17:50:22.077Z,57.80
2018-06-13T17:55:24.278Z,58.70
2018-06-13T18:00:26.495Z,58.10
2018-06-13T18:05:28.650Z,58.50
2018-06-13T18:10:30.791Z,57.30
2018-06-13T18:15:32.995Z,57.00
2018-06-13T18:20:35.175Z,57.90
2018-06-13T18:25:37.357Z,58.00
2018-06-13T18:30:40.427Z,57.50
2018-06-13T18:35:42.600Z,59.20
2018-06-13T18:40:44.766Z,59.90
2018-06-13T18:45:46.907Z,62.00
2018-06-13T18:50:49.101Z,59.60
2018-06-13T18:55:51.269Z,60.20
2018-06-13T19:00:53.471Z,59.00
2018-06-13T19:05:55.653Z,59.50
2018-06-13T19:10:57.815Z,59.10
2018-06-13T19:15:59.992Z,59.50
2018-06-13T19:21:02.168Z,62.50
2018-06-13T19:26:04.449Z,62.10
2018-06-13T19:31:06.687Z,63.10
2018-06-13T19:36:08.956Z,62.90
2018-06-13T19:41:11.197Z,64.70
2018-06-13T19:46:13.626Z,65.30
2018-06-13T19:51:15.818Z,68.60
2018-06-13T19:56:20.577Z,69.10
2018-06-13T20:01:22.829Z,68.90
2018-06-13T20:06:24.972Z,67.20
2018-06-13T20:11:27.151Z,66.90
2018-06-13T20:16:46.852Z,67.80
2018-06-13T20:21:48.989Z,68.00
2018-06-13T20:26:56.751Z,68.70
2018-06-13T20:31:58.918Z,69.00
2018-06-13T20:37:01.068Z,68.40
2018-06-13T20:42:03.225Z,69.80
2018-06-13T20:47:05.404Z,69.00
2018-06-13T20:52:07.561Z,71.00
2018-06-13T20:57:09.726Z,73.20
2018-06-13T21:02:11.889Z,74.90
2018-06-13T21:07:14.025Z,76.20
2018-06-13T21:12:16.188Z,77.20
2018-06-13T21:17:18.384Z,77.00
2018-06-13T21:22:20.675Z,77.20
2018-06-13T21:27:22.850Z,78.00
2018-06-13T21:32:24.973Z,79.70
2018-06-13T21:37:27.106Z,81.50
2018-06-13T21:42:29.298Z,83.30
2018-06-13T21:47:31.455Z,82.60
2018-06-13T21:52:33.614Z,82.20
2018-06-13T21:57:35.783Z,83.40
2018-06-13T22:02:37.935Z,85.10
2018-06-13T22:07:40.137Z,85.70
2018-06-13T22:12:42.299Z,88.20
2018-06-13T22:17:44.453Z,90.30
2018-06-13T22:22:46.790Z,93.20
2018-06-13T22:27:48.961Z,86.70
2018-06-13T22:32:51.174Z,89.90
2018-06-13T22:37:53.341Z,92.70
2018-06-13T22:42:55.538Z,93.30
2018-06-13T22:47:57.734Z,87.60
2018-06-13T22:52:59.913Z,89.30
2018-06-13T22:58:02.297Z,90.30
2018-06-13T23:03:04.518Z,85.80
2018-06-13T23:08:06.667Z,86.40
2018-06-13T23:13:08.878Z,90.60
2018-06-13T23:18:11.063Z,91.80
2018-06-13T23:23:13.229Z,89.30
2018-06-13T23:28:15.387Z,91.90
2018-06-13T23:33:17.566Z,91.60
2018-06-13T23:38:19.754Z,91.30
2018-06-13T23:43:22.137Z,92.60
2018-06-13T23:48:24.310Z,92.50
2018-06-13T23:53:26.502Z,94.00
2018-06-13T23:58:28.677Z,94.50
